Time;durP1;ratioP1;P1;durP2;ratioP2;P2;SDS_P1;SDS_P2;PMS_P1;PMS_P2;Temp;Humidity;BMP_temperature;BMP_pressure;BME280_temperature;BME280_humidity;BME280_pressure;Samples;Min_cycle;Max_cycle;Signal;HPM_P1;HPM_P2
2022/01/11 00:00:35;;;;;;;16.38;7.30;;;;;;;-1.01;82.22;100911.09;5041992;28;20526;-79
2022/01/11 00:03:02;;;;;;;16.05;8.07;;;;;;;-0.94;82.11;100911.22;5053594;28;20041;-79
2022/01/11 00:05:32;;;;;;;19.48;7.78;;;;;;;-0.87;81.62;100912.22;5065073;28;20101;-77
2022/01/11 00:07:58;;;;;;;13.93;6.03;;;;;;;-0.80;81.33;100918.34;5052089;28;20028;-78
2022/01/11 00:10:31;;;;;;;14.27;7.35;;;;;;;-0.75;80.95;100922.75;5060110;28;20038;-77
2022/01/11 00:12:58;;;;;;;12.48;7.60;;;;;;;-0.72;80.97;100912.44;5054335;28;20033;-77
2022/01/11 00:15:24;;;;;;;10.35;6.10;;;;;;;-0.68;80.26;100924.59;5067564;28;20049;-78
2022/01/11 00:17:50;;;;;;;14.93;7.20;;;;;;;-0.67;80.63;100923.72;5049544;28;20055;-79
2022/01/11 00:20:17;;;;;;;11.05;7.50;;;;;;;-0.66;80.12;100924.63;5070288;28;20060;-79
2022/01/11 00:24:27;;;;;;;14.82;6.63;;;;;;;-0.67;79.75;100928.91;5065495;28;20099;-78
2022/01/11 00:25:55;;;;;;;16.08;8.55;;;;;;;-0.72;79.89;100924.50;5038743;28;20090;-78
2022/01/11 00:28:23;;;;;;;13.15;6.45;;;;;;;-0.75;80.59;100916.72;5073154;28;20534;-78
2022/01/11 00:30:50;;;;;;;10.38;6.13;;;;;;;-0.75;79.57;100924.47;5042846;28;20033;-78
2022/01/11 00:33:21;;;;;;;16.00;7.55;;;;;;;-0.80;79.73;100926.13;5046241;28;20041;-78
2022/01/11 00:35:57;;;;;;;18.95;9.20;;;;;;;-0.93;80.27;100922.47;5040875;28;20501;-79
2022/01/11 00:38:23;;;;;;;17.27;8.38;;;;;;;-1.02;80.26;100920.59;5064725;28;20056;-79
2022/01/11 00:40:52;;;;;;;16.15;7.35;;;;;;;-1.08;81.19;100917.94;5060481;28;20546;-80
2022/01/11 00:43:19;;;;;;;15.05;8.13;;;;;;;-1.19;80.43;100925.50;5070647;28;20036;-80
2022/01/11 00:45:45;;;;;;;19.00;7.85;;;;;;;-1.24;80.72;100919.38;5060654;28;20090;-80
2022/01/11 00:48:14;;;;;;;11.30;6.88;;;;;;;-1.35;81.18;100920.91;5054647;28;20494;-80
2022/01/11 00:50:40;;;;;;;13.68;7.82;;;;;;;-1.36;81.65;100920.03;5052448;28;20029;-79
2022/01/11 00:53:06;;;;;;;16.90;7.70;;;;;;;-1.40;81.38;100918.25;5068653;28;20040;-80
2022/01/11 00:55:34;;;;;;;20.50;9.48;;;;;;;-1.47;82.11;100921.56;5053545;28;20068;-79
2022/01/11 00:58:02;;;;;;;19.95;7.47;;;;;;;-1.53;81.75;100917.16;5052530;28;20029;-78
2022/01/11 01:00:28;;;;;;;18.48;7.70;;;;;;;-1.53;82.14;100921.44;5057380;28;20029;-79
2022/01/11 01:02:54;;;;;;;16.85;8.23;;;;;;;-1.56;82.19;100919.66;5057660;28;20117;-79
2022/01/11 01:05:19;;;;;;;20.02;9.57;;;;;;;-1.60;81.86;100925.66;5050510;28;20040;-79
2022/01/11 01:07:45;;;;;;;15.73;8.27;;;;;;;-1.65;81.71;100934.13;5049271;28;20056;-79
2022/01/11 01:10:25;;;;;;;19.52;7.93;;;;;;;-1.74;81.97;100921.94;5057171;28;20390;-79
2022/01/11 01:12:51;;;;;;;12.52;7.80;;;;;;;-1.76;82.21;100926.19;5051914;28;20469;-80
2022/01/11 01:15:18;;;;;;;13.68;7.22;;;;;;;-1.69;82.57;100929.78;5069682;28;20064;-78
2022/01/11 01:17:43;;;;;;;17.42;7.82;;;;;;;-1.66;81.94;100935.00;5070440;28;20041;-78
2022/01/11 01:20:09;;;;;;;16.85;7.75;;;;;;;-1.67;82.11;100936.72;5052651;28;20033;-78
2022/01/11 01:22:35;;;;;;;18.45;8.68;;;;;;;-1.76;82.31;100939.97;5052849;28;20288;-78
2022/01/11 01:25:00;;;;;;;17.95;9.27;;;;;;;-1.83;82.40;100938.13;5076597;28;20033;-78
2022/01/11 01:27:26;;;;;;;13.25;6.95;;;;;;;-1.80;82.79;100940.75;5087317;28;20037;-79
2022/01/11 01:29:51;;;;;;;17.25;8.63;;;;;;;-1.81;82.32;100941.59;5071203;28;20036;-79
2022/01/11 01:32:17;;;;;;;16.90;9.02;;;;;;;-1.81;82.17;100945.91;5072311;28;20033;-79
2022/01/11 01:34:42;;;;;;;15.15;6.60;;;;;;;-1.81;82.21;100946.78;5089557;28;20024;-80
2022/01/11 01:37:07;;;;;;;16.65;8.73;;;;;;;-1.79;81.86;100941.66;5071541;28;20491;-79
2022/01/11 01:39:34;;;;;;;17.67;7.47;;;;;;;-1.76;82.03;100952.03;5059958;28;20041;-80
2022/01/11 01:42:02;;;;;;;13.60;7.38;;;;;;;-1.77;81.99;100958.06;5059858;28;20057;-79
2022/01/11 01:44:27;;;;;;;20.52;8.40;;;;;;;-1.73;81.83;100958.13;5062636;28;20064;-79
2022/01/11 01:46:53;;;;;;;19.90;7.85;;;;;;;-1.73;81.70;100958.13;5071752;28;20037;-79
2022/01/11 01:49:21;;;;;;;12.18;7.07;;;;;;;-1.71;81.21;100965.91;5070034;28;20106;-79
2022/01/11 01:51:46;;;;;;;16.38;8.30;;;;;;;-1.76;81.21;100963.25;5068090;28;20044;-80
2022/01/11 01:54:14;;;;;;;13.98;7.10;;;;;;;-1.83;81.23;100974.28;5027602;28;20037;-81
2022/01/11 01:56:40;;;;;;;14.27;7.60;;;;;;;-1.88;81.61;100972.47;5056704;28;20032;-81
2022/01/11 01:59:06;;;;;;;18.23;7.47;;;;;;;-1.84;81.89;100977.75;5058310;28;20036;-79
2022/01/11 02:01:35;;;;;;;18.98;8.90;;;;;;;-1.91;81.55;100977.59;5029580;28;20037;-79
2022/01/11 02:04:01;;;;;;;18.42;8.38;;;;;;;-2.00;81.86;100973.94;5060352;28;20033;-79
2022/01/11 02:06:26;;;;;;;18.40;8.60;;;;;;;-2.00;81.91;100973.09;5068537;28;20021;-79
2022/01/11 02:08:52;;;;;;;17.13;8.52;;;;;;;-1.97;81.87;100975.72;5071715;28;20033;-79
2022/01/11 02:11:20;;;;;;;14.80;7.65;;;;;;;-1.98;82.37;100976.56;5066071;28;20045;-79
2022/01/11 02:13:46;;;;;;;14.82;7.13;;;;;;;-2.00;81.77;100979.13;5066907;28;20095;-81
2022/01/11 02:16:13;;;;;;;13.23;7.20;;;;;;;-1.94;82.62;100978.41;5035105;28;20041;-81
2022/01/11 02:18:40;;;;;;;15.10;8.68;;;;;;;-1.92;82.04;100991.31;5032956;28;20049;-82
2022/01/11 02:21:06;;;;;;;14.48;6.70;;;;;;;-1.88;81.88;100990.56;5033783;28;20029;-80
2022/01/11 02:23:31;;;;;;;15.82;7.80;;;;;;;-1.92;81.46;100983.56;5036962;28;20203;-80
2022/01/11 02:25:57;;;;;;;12.10;7.15;;;;;;;-1.90;81.71;100989.66;5037518;28;20496;-79
2022/01/11 02:28:25;;;;;;;15.75;6.53;;;;;;;-1.87;81.67;100997.47;5036546;28;20048;-79
2022/01/11 02:30:51;;;;;;;14.25;6.70;;;;;;;-1.88;81.16;100995.72;5054436;28;20490;-79
2022/01/11 02:33:46;;;;;;;12.10;6.55;;;;;;;-1.88;81.03;100999.19;5052355;28;20072;-79
2022/01/11 02:36:16;;;;;;;15.60;6.53;;;;;;;-1.82;81.11;101001.00;5035138;28;20115;-78
2022/01/11 02:38:41;;;;;;;10.85;6.43;;;;;;;-1.83;80.77;101004.44;5037379;28;20053;-79
2022/01/11 02:41:07;;;;;;;17.20;8.18;;;;;;;-1.93;80.93;101007.69;5056957;28;20033;-78
2022/01/11 02:43:32;;;;;;;12.27;7.15;;;;;;;-1.95;81.26;101005.91;5060356;28;20033;-79
2022/01/11 02:46:00;;;;;;;13.88;6.88;;;;;;;-1.96;81.17;101004.19;5059606;28;20047;-79
2022/01/11 02:48:26;;;;;;;12.90;6.60;;;;;;;-1.91;80.93;101003.44;5059762;28;20530;-77
2022/01/11 02:50:52;;;;;;;9.77;6.25;;;;;;;-1.87;80.93;101000.03;5056770;28;20179;-79
2022/01/11 02:53:18;;;;;;;12.25;6.53;;;;;;;-1.84;80.83;101007.88;5058595;28;20053;-80
2022/01/11 02:55:44;;;;;;;12.05;6.47;;;;;;;-1.91;80.61;101008.59;5059731;28;20040;-79
2022/01/11 02:58:13;;;;;;;11.93;7.78;;;;;;;-1.96;80.98;101000.75;5066947;28;20025;-77
2022/01/11 03:00:40;;;;;;;11.98;6.75;;;;;;;-2.00;80.97;101001.50;5058240;28;20064;-80
2022/01/11 03:03:12;;;;;;;9.80;5.32;;;;;;;-1.92;81.25;100996.50;5053698;28;20052;-79
2022/01/11 03:05:45;;;;;;;11.82;5.30;;;;;;;-1.87;81.21;101003.53;5054729;28;20043;-79
2022/01/11 03:08:12;;;;;;;14.68;6.63;;;;;;;-1.86;80.33;101004.38;5056491;28;20025;-80
2022/01/11 03:10:37;;;;;;;12.35;4.78;;;;;;;-1.91;80.70;101003.44;5055596;28;20036;-79
2022/01/11 03:13:05;;;;;;;17.77;6.15;;;;;;;-1.89;80.31;101009.50;5057546;28;20092;-80
2022/01/11 03:15:31;;;;;;;10.45;5.82;;;;;;;-1.86;80.92;101009.56;5037639;28;20036;-81
2022/01/11 03:17:56;;;;;;;7.55;5.50;;;;;;;-1.80;81.03;101007.09;5037710;28;20092;-81
2022/01/11 03:20:22;;;;;;;10.98;5.00;;;;;;;-1.74;80.52;101010.69;5056591;28;20098;-80
2022/01/11 03:22:48;;;;;;;13.00;4.50;;;;;;;-1.72;80.34;101010.72;5064854;28;20068;-83
2022/01/11 03:25:14;;;;;;;14.63;6.38;;;;;;;-1.78;80.31;101010.59;5073427;28;20028;-78
2022/01/11 03:27:40;;;;;;;11.75;6.40;;;;;;;-1.78;80.01;101010.59;5068576;28;20036;-80
2022/01/11 03:30:08;;;;;;;17.98;6.68;;;;;;;-1.80;80.47;101015.72;5056571;28;20490;-80
2022/01/11 03:32:33;;;;;;;9.45;4.30;;;;;;;-1.84;80.67;101020.81;5057755;28;20102;-80
2022/01/11 03:34:58;;;;;;;11.30;5.13;;;;;;;-1.87;80.24;101019.03;5060834;28;20198;-78
2022/01/11 03:37:24;;;;;;;11.82;6.25;;;;;;;-1.88;80.86;101019.84;5045044;28;20045;-78
2022/01/11 03:39:49;;;;;;;13.30;6.93;;;;;;;-1.79;80.49;101024.34;5061955;28;20120;-79
2022/01/11 03:42:15;;;;;;;10.25;5.38;;;;;;;-1.77;80.69;101023.56;5061674;28;20029;-80
2022/01/11 03:44:40;;;;;;;10.48;5.95;;;;;;;-1.76;80.17;101024.41;5064227;28;20502;-80
2022/01/11 03:47:06;;;;;;;11.40;6.72;;;;;;;-1.86;80.59;101033.69;5062400;28;20049;-79
2022/01/11 03:49:32;;;;;;;46.63;7.00;;;;;;;-1.98;80.56;101033.41;5052982;28;20090;-78
2022/01/11 03:51:57;;;;;;;11.30;5.75;;;;;;;-1.97;81.07;101032.56;5049232;28;20091;-80
2022/01/11 03:54:26;;;;;;;12.68;6.35;;;;;;;-1.96;81.51;101040.38;5050199;28;20128;-79
2022/01/11 03:56:52;;;;;;;13.02;6.25;;;;;;;-1.96;80.72;101035.19;5051264;28;20406;-78
2022/01/11 03:59:18;;;;;;;11.40;6.05;;;;;;;-1.92;80.74;101037.84;5051265;28;20033;-79
2022/01/11 04:01:44;;;;;;;9.65;6.35;;;;;;;-1.93;80.94;101033.53;5049318;28;20028;-78
2022/01/11 04:04:10;;;;;;;12.95;6.45;;;;;;;-1.99;80.45;101034.28;5052350;28;20120;-79
2022/01/11 04:06:36;;;;;;;13.35;6.65;;;;;;;-2.02;80.89;101029.91;5060725;28;20075;-79
2022/01/11 04:09:04;;;;;;;12.98;6.72;;;;;;;-2.03;81.05;101045.38;5044043;28;20033;-76
2022/01/11 04:11:29;;;;;;;12.95;5.68;;;;;;;-2.08;80.42;101045.25;5061364;28;20045;-78
2022/01/11 04:13:54;;;;;;;13.48;6.82;;;;;;;-2.07;80.68;101038.38;5061276;28;20060;-79
2022/01/11 04:16:20;;;;;;;10.50;5.70;;;;;;;-2.13;81.08;101044.28;5055741;28;20524;-79
2022/01/11 04:18:45;;;;;;;11.50;5.32;;;;;;;-2.12;81.53;101046.03;5043881;28;20410;-79
2022/01/11 04:21:11;;;;;;;12.63;5.28;;;;;;;-2.19;81.83;101041.56;5032037;28;20041;-79
2022/01/11 04:23:36;;;;;;;13.00;5.72;;;;;;;-2.16;81.92;101041.66;5033548;28;20426;-79
2022/01/11 04:26:02;;;;;;;12.65;4.72;;;;;;;-2.12;81.04;101040.84;5033867;28;20033;-78
2022/01/11 04:28:28;;;;;;;11.05;5.47;;;;;;;-2.20;80.95;101037.25;5037083;28;20487;-78
2022/01/11 04:30:59;;;;;;;10.77;6.80;;;;;;;-2.21;80.99;101038.94;5033315;28;20021;-79
2022/01/11 04:33:28;;;;;;;8.90;5.63;;;;;;;-2.19;81.05;101044.13;5034440;28;20065;-78
2022/01/11 04:35:55;;;;;;;7.53;4.40;;;;;;;-2.20;81.70;101042.41;5046166;28;20041;-78
2022/01/11 04:38:23;;;;;;;13.02;6.18;;;;;;;-2.21;81.68;101044.13;5049850;28;20390;-78
2022/01/11 04:40:50;;;;;;;9.68;4.35;;;;;;;-2.16;81.79;101041.66;5048942;28;20025;-78
2022/01/11 04:43:17;;;;;;;18.40;7.68;;;;;;;-2.15;81.17;101045.97;5062819;28;20077;-79
2022/01/11 04:45:43;;;;;;;18.25;7.10;;;;;;;-2.26;81.28;101053.47;5071046;28;20032;-82
2022/01/11 04:48:09;;;;;;;9.98;4.80;;;;;;;-2.27;81.44;101051.72;5070798;28;20085;-79
2022/01/11 04:50:35;;;;;;;10.95;6.25;;;;;;;-2.30;82.01;101054.22;5062540;28;20037;-77
2022/01/11 04:53:03;;;;;;;13.40;6.00;;;;;;;-2.40;81.76;101055.72;5067777;28;20025;-78
2022/01/11 04:55:28;;;;;;;8.60;5.35;;;;;;;-2.45;81.96;101052.16;5067754;28;20037;-76
2022/01/11 04:57:54;;;;;;;15.88;6.38;;;;;;;-2.46;81.83;101059.84;5052125;28;20066;-78
2022/01/11 05:00:23;;;;;;;14.32;6.80;;;;;;;-2.44;82.33;101060.78;5063509;28;20052;-78
2022/01/11 05:02:48;;;;;;;7.75;5.00;;;;;;;-2.34;82.20;101065.31;5037512;28;20433;-79
2022/01/11 05:05:15;;;;;;;9.02;4.75;;;;;;;-2.34;81.96;101056.69;5052307;28;20029;-79
2022/01/11 05:07:45;;;;;;;8.32;4.63;;;;;;;-2.23;82.18;101068.16;5053306;28;20045;-79
2022/01/11 05:10:12;;;;;;;15.52;4.53;;;;;;;-2.38;81.21;101068.69;5056676;28;20025;-80
2022/01/11 05:12:38;;;;;;;10.98;4.75;;;;;;;-2.30;81.73;101074.03;5059947;28;20067;-80
2022/01/11 05:15:06;;;;;;;7.85;4.28;;;;;;;-2.23;81.25;101065.59;5062384;28;20492;-79
2022/01/11 05:17:32;;;;;;;8.48;3.92;;;;;;;-2.20;80.93;101063.06;5058997;28;20095;-80
2022/01/11 05:19:57;;;;;;;14.60;5.05;;;;;;;-2.17;80.44;101065.72;5041950;28;20386;-80
2022/01/11 05:22:23;;;;;;;12.00;4.45;;;;;;;-2.14;80.77;101068.41;5057494;28;20040;-83
2022/01/11 05:24:48;;;;;;;19.58;6.90;;;;;;;-2.13;80.20;101058.94;5058816;28;20471;-80
2022/01/11 05:27:14;;;;;;;14.70;4.78;;;;;;;-2.11;80.52;101065.00;5057963;28;20041;-81
2022/01/11 05:29:40;;;;;;;8.90;4.38;;;;;;;-2.12;80.74;101064.09;5059930;28;20037;-81
2022/01/11 05:32:06;;;;;;;7.75;4.68;;;;;;;-2.06;80.32;101066.84;5060771;28;20049;-81
2022/01/11 05:34:31;;;;;;;8.05;4.18;;;;;;;-2.05;80.37;101066.00;5062022;28;20056;-81
2022/01/11 05:36:56;;;;;;;6.85;4.20;;;;;;;-2.03;79.77;101058.28;5063732;28;20131;-78
2022/01/11 05:39:22;;;;;;;8.52;4.80;;;;;;;-2.06;79.37;101059.09;5027921;28;20048;-78
2022/01/11 05:41:47;;;;;;;8.02;4.82;;;;;;;-2.11;79.17;101060.69;5066367;28;20036;-78
2022/01/11 05:44:13;;;;;;;17.33;6.70;;;;;;;-2.17;79.52;101057.97;5059626;28;20037;-79
2022/01/11 05:46:38;;;;;;;6.70;4.65;;;;;;;-2.25;79.74;101056.91;5060674;28;20167;-79
2022/01/11 05:49:03;;;;;;;10.13;5.60;;;;;;;-2.28;80.17;101062.03;5063422;28;20111;-83
2022/01/11 05:51:29;;;;;;;13.30;5.93;;;;;;;-2.27;80.96;101061.19;5072095;28;20044;-82
2022/01/11 05:53:55;;;;;;;9.77;5.00;;;;;;;-2.19;80.63;101059.63;5072298;28;20029;-82
2022/01/11 05:56:21;;;;;;;12.20;5.57;;;;;;;-2.17;80.49;101063.13;5042754;28;20024;-79
2022/01/11 05:58:46;;;;;;;8.82;5.22;;;;;;;-2.15;80.14;101061.47;5057128;28;20128;-81
2022/01/11 06:01:13;;;;;;;10.60;6.22;;;;;;;-2.14;80.19;101064.91;5059703;28;20040;-79
2022/01/11 06:03:39;;;;;;;13.10;5.15;;;;;;;-2.09;79.96;101063.31;5048630;28;20517;-80
2022/01/11 06:06:04;;;;;;;52.00;8.45;;;;;;;-2.08;79.84;101062.47;5034899;28;20041;-80
2022/01/11 06:08:30;;;;;;;7.13;3.25;;;;;;;-2.02;80.62;101067.78;5035703;28;20055;-78
2022/01/11 06:10:57;;;;;;;8.40;5.03;;;;;;;-1.96;79.96;101066.22;5056494;28;20064;-80
2022/01/11 06:13:23;;;;;;;11.65;6.47;;;;;;;-1.93;79.25;101072.28;5026056;28;20049;-81
2022/01/11 06:15:49;;;;;;;10.32;5.65;;;;;;;-1.92;79.65;101064.56;5057961;28;20094;-81
2022/01/11 06:18:14;;;;;;;11.80;5.95;;;;;;;-1.87;79.02;101075.88;5059479;28;20037;-80
2022/01/11 06:20:40;;;;;;;8.80;4.97;;;;;;;-1.83;79.46;101075.09;5054905;28;20041;-79
2022/01/11 06:23:05;;;;;;;7.40;3.72;;;;;;;-1.80;79.25;101076.88;5057487;28;20125;-81
2022/01/11 06:25:30;;;;;;;6.30;3.50;;;;;;;-1.76;79.24;101071.81;5062532;28;20035;-80
2022/01/11 06:27:56;;;;;;;8.65;3.92;;;;;;;-1.70;79.21;101080.53;5061135;28;20092;-82
2022/01/11 06:30:21;;;;;;;9.07;5.28;;;;;;;-1.71;78.55;101068.47;5056816;28;20090;-79
2022/01/11 06:32:47;;;;;;;7.65;4.53;;;;;;;-1.70;78.63;101076.22;5057317;28;20032;-79
2022/01/11 06:35:17;;;;;;;8.20;4.63;;;;;;;-1.69;78.72;101077.13;5062353;28;20493;-79
2022/01/11 06:37:44;;;;;;;15.07;6.32;;;;;;;-1.68;78.77;101082.31;5061545;28;20516;-80
2022/01/11 06:40:10;;;;;;;8.90;4.57;;;;;;;-1.67;78.43;101083.19;5059342;28;20037;-78
2022/01/11 06:42:36;;;;;;;7.97;4.53;;;;;;;-1.65;78.48;101085.00;5053398;28;20563;-79
2022/01/11 06:45:01;;;;;;;6.63;4.00;;;;;;;-1.60;79.21;101087.66;5037488;28;20037;-78
2022/01/11 06:47:27;;;;;;;12.70;4.25;;;;;;;-1.56;78.76;101100.66;5055385;28;20041;-79
2022/01/11 06:49:52;;;;;;;7.38;3.78;;;;;;;-1.56;78.28;101092.91;5056460;28;20037;-79
2022/01/11 06:52:17;;;;;;;17.90;7.05;;;;;;;-1.55;77.80;101099.84;5022976;28;20056;-78
2022/01/11 06:54:43;;;;;;;7.03;3.90;;;;;;;-1.60;79.02;101101.47;5038626;28;20033;-77
2022/01/11 06:57:09;;;;;;;12.75;3.28;;;;;;;-1.58;79.23;101109.25;5057727;28;20033;-78
2022/01/11 06:59:37;;;;;;;8.20;3.40;;;;;;;-1.54;78.53;101109.34;5055217;28;20047;-78
2022/01/11 07:02:06;;;;;;;6.55;4.13;;;;;;;-1.54;78.95;101106.75;5054157;28;20033;-77
2022/01/11 07:04:37;;;;;;;8.73;3.15;;;;;;;-1.48;78.70;101105.13;5056293;28;20048;-77
2022/01/11 07:07:04;;;;;;;7.65;3.63;;;;;;;-1.47;78.09;101110.34;5055902;28;20060;-77
2022/01/11 07:09:29;;;;;;;9.38;4.03;;;;;;;-1.52;78.15;101118.00;5054688;28;20538;-79
2022/01/11 07:11:55;;;;;;;9.07;4.07;;;;;;;-1.52;78.51;101122.31;5054671;28;20140;-79
2022/01/11 07:14:20;;;;;;;9.90;3.70;;;;;;;-1.48;78.58;101131.00;5060091;28;20044;-78
2022/01/11 07:16:48;;;;;;;19.92;3.97;;;;;;;-1.47;78.54;101132.75;5061755;28;20033;-78
2022/01/11 07:19:16;;;;;;;10.32;4.47;;;;;;;-1.44;77.85;101135.41;5055176;28;20045;-80
2022/01/11 07:21:44;;;;;;;6.50;3.88;;;;;;;-1.45;78.25;101141.41;5060872;28;20067;-80
2022/01/11 07:24:10;;;;;;;10.77;4.45;;;;;;;-1.49;78.76;101144.78;5057374;28;20123;-79
2022/01/11 07:26:35;;;;;;;9.27;4.47;;;;;;;-1.45;78.47;101141.41;5038834;28;20037;-79
2022/01/11 07:29:03;;;;;;;9.20;4.82;;;;;;;-1.44;78.08;101135.41;5041110;28;20089;-79
2022/01/11 07:31:29;;;;;;;8.55;4.80;;;;;;;-1.45;78.32;101142.31;5040480;28;20041;-78
2022/01/11 07:33:55;;;;;;;11.73;5.82;;;;;;;-1.42;78.58;101141.50;5057356;28;20041;-79
2022/01/11 07:36:20;;;;;;;34.22;31.38;;;;;;;-1.44;78.35;101144.03;5056248;28;20033;-78
2022/01/11 07:38:45;;;;;;;15.82;6.47;;;;;;;-1.60;78.77;101147.13;5057665;28;20044;-79
2022/01/11 07:41:11;;;;;;;12.45;6.03;;;;;;;-1.66;79.11;101147.84;5057632;28;20037;-79
2022/01/11 07:43:36;;;;;;;7.70;5.00;;;;;;;-1.62;79.64;101144.50;5051579;28;20056;-81
2022/01/11 07:46:02;;;;;;;10.80;6.28;;;;;;;-1.69;79.12;101144.34;5062014;28;20033;-79
2022/01/11 07:48:27;;;;;;;9.32;5.53;;;;;;;-1.76;79.67;101148.50;5059633;28;20049;-79
2022/01/11 07:50:53;;;;;;;9.85;5.38;;;;;;;-1.69;79.95;101141.75;5041020;28;20124;-78
2022/01/11 07:53:19;;;;;;;7.88;5.10;;;;;;;-1.63;79.32;101152.22;5058371;28;20047;-78
2022/01/11 07:55:44;;;;;;;6.80;4.93;;;;;;;-1.65;79.40;101159.97;5054777;28;20033;-79
2022/01/11 07:58:09;;;;;;;11.98;6.93;;;;;;;-1.57;79.54;101155.81;5044356;28;20044;-80
2022/01/11 08:00:35;;;;;;;9.75;4.28;;;;;;;-1.51;79.49;101155.94;5045475;28;20064;-78
2022/01/11 08:03:01;;;;;;;7.45;4.35;;;;;;;-1.41;79.52;101157.03;5048528;28;20053;-79
2022/01/11 08:05:26;;;;;;;10.85;5.93;;;;;;;-1.32;78.77;101165.00;5069398;28;20576;-78
2022/01/11 08:07:52;;;;;;;8.60;4.35;;;;;;;-1.30;78.12;101165.03;5052394;28;20052;-79
2022/01/11 08:10:18;;;;;;;8.25;3.95;;;;;;;-1.32;78.51;101169.28;5036644;28;20056;-81
2022/01/11 08:12:45;;;;;;;8.18;4.18;;;;;;;-1.29;78.30;101177.13;5055471;28;20024;-79
2022/01/11 08:15:11;;;;;;;5.47;3.42;;;;;;;-1.27;78.76;101174.56;5059229;28;20490;-79
2022/01/11 08:17:36;;;;;;;8.65;4.43;;;;;;;-1.27;78.63;101170.25;5051179;28;20044;-81
2022/01/11 08:20:03;;;;;;;10.52;4.63;;;;;;;-1.21;78.40;101172.97;5045697;28;20461;-80
2022/01/11 08:22:29;;;;;;;7.20;4.28;;;;;;;-1.16;78.01;101175.66;5043997;28;20037;-78
2022/01/11 08:24:54;;;;;;;8.77;4.05;;;;;;;-1.13;78.38;101176.59;5047039;28;20037;-79
2022/01/11 08:27:22;;;;;;;6.78;4.13;;;;;;;-1.10;77.76;101179.25;5050582;28;20093;-79
2022/01/11 08:29:48;;;;;;;7.47;3.72;;;;;;;-1.04;77.98;101181.09;5052844;28;20028;-79
2022/01/11 08:32:13;;;;;;;8.23;3.30;;;;;;;-1.08;77.68;101185.34;5048622;28;20068;-80
2022/01/11 08:34:39;;;;;;;9.15;4.13;;;;;;;-1.07;78.29;101183.63;5050425;28;20048;-71
2022/01/11 08:37:04;;;;;;;11.63;5.10;;;;;;;-0.99;78.70;101186.34;5037995;28;20387;-70
2022/01/11 08:39:30;;;;;;;11.32;4.70;;;;;;;-0.91;77.80;101189.97;5062229;28;20042;-69
2022/01/11 08:41:56;;;;;;;7.53;4.03;;;;;;;-0.93;78.10;101197.72;5030394;28;20052;-70
2022/01/11 08:44:24;;;;;;;11.13;4.57;;;;;;;-0.91;78.74;101197.72;5028532;28;20120;-70
2022/01/11 08:46:49;;;;;;;8.82;3.92;;;;;;;-0.88;77.99;101203.00;5040469;28;20485;-70
2022/01/11 08:49:15;;;;;;;7.97;4.35;;;;;;;-0.90;78.23;101196.91;5048254;28;20227;-69
2022/01/11 08:51:41;;;;;;;8.63;4.20;;;;;;;-0.88;78.16;101195.22;5024174;28;20037;-71
2022/01/11 08:54:07;;;;;;;9.27;5.72;;;;;;;-0.79;78.72;101200.56;5028957;28;20049;-69
2022/01/11 08:56:33;;;;;;;14.90;6.63;;;;;;;-0.77;78.62;101201.47;5044999;28;20590;-69
2022/01/11 08:58:59;;;;;;;11.32;4.93;;;;;;;-0.71;78.46;101201.59;5034553;28;20124;-70
2022/01/11 09:01:28;;;;;;;16.08;4.93;;;;;;;-0.60;78.47;101203.53;5038607;28;20440;-77
2022/01/11 09:03:54;;;;;;;8.45;3.88;;;;;;;-0.52;78.96;101204.53;5033036;28;20044;-77
2022/01/11 09:06:20;;;;;;;7.13;4.93;;;;;;;-0.48;79.03;101204.63;5041817;28;20596;-76
2022/01/11 09:08:45;;;;;;;8.07;3.50;;;;;;;-0.34;79.26;101204.88;5042642;28;20119;-78
2022/01/11 09:11:10;;;;;;;7.72;4.10;;;;;;;-0.29;78.29;101212.75;5038716;28;20037;-76
2022/01/11 09:13:37;;;;;;;8.90;4.93;;;;;;;-0.24;78.06;101205.94;5031876;28;20594;-77
2022/01/11 09:16:04;;;;;;;10.35;4.07;;;;;;;-0.15;78.56;101215.56;5023896;28;20049;-77
2022/01/11 09:18:30;;;;;;;8.63;3.88;;;;;;;-0.02;78.51;101214.94;5025677;28;20037;-79
2022/01/11 09:21:00;;;;;;;6.10;3.13;;;;;;;0.15;78.42;101207.47;5045651;28;20451;-79
2022/01/11 09:23:26;;;;;;;12.63;4.07;;;;;;;0.31;77.81;101209.44;5033598;28;20044;-78
2022/01/11 09:25:51;;;;;;;8.57;4.32;;;;;;;0.45;77.35;101208.78;5042934;28;20033;-79
2022/01/11 09:28:17;;;;;;;7.47;3.65;;;;;;;0.59;77.10;101213.31;5045706;28;20044;-79
2022/01/11 09:30:42;;;;;;;7.80;4.32;;;;;;;1.73;75.97;101203.44;5058227;28;20041;-80
2022/01/11 09:33:08;;;;;;;7.53;4.00;;;;;;;3.36;72.02;101206.22;5037229;28;20060;-79
2022/01/11 09:35:33;;;;;;;10.68;4.45;;;;;;;4.81;67.61;101201.91;5012790;28;20128;-78
2022/01/11 09:37:59;;;;;;;7.93;4.75;;;;;;;5.97;63.76;101194.34;5033791;28;20042;-77
2022/01/11 09:40:25;;;;;;;9.85;6.85;;;;;;;6.94;60.09;101199.56;5028929;28;20044;-77
2022/01/11 09:42:50;;;;;;;6.93;4.57;;;;;;;7.86;56.95;101197.44;5044644;28;20045;-78
2022/01/11 09:45:16;;;;;;;6.50;3.95;;;;;;;8.98;54.87;101191.13;5044261;28;20053;-78
2022/01/11 09:47:41;;;;;;;10.45;5.20;;;;;;;9.82;50.40;101192.78;5041557;28;20506;-79
2022/01/11 09:50:10;;;;;;;5.25;3.50;;;;;;;10.49;51.55;101188.53;5016243;28;20135;-79
2022/01/11 09:52:36;;;;;;;7.15;3.60;;;;;;;11.09;49.31;101193.91;5037384;28;20033;-79
2022/01/11 09:55:04;;;;;;;5.82;2.85;;;;;;;11.51;47.11;101183.84;5037411;28;20103;-78
2022/01/11 09:57:29;;;;;;;9.02;3.35;;;;;;;11.79;42.29;101189.16;5038750;28;20518;-79
2022/01/11 09:59:55;;;;;;;4.30;2.65;;;;;;;11.89;41.37;101186.22;5055468;28;20041;-79
2022/01/11 10:02:20;;;;;;;6.38;2.72;;;;;;;12.41;41.20;101188.03;5037066;28;20043;-78
2022/01/11 10:04:45;;;;;;;10.52;3.80;;;;;;;13.05;39.93;101182.22;5036574;28;20061;-78
2022/01/11 10:07:13;;;;;;;4.35;2.40;;;;;;;13.28;40.42;101177.88;5052006;28;20045;-78
2022/01/11 10:09:48;;;;;;;5.72;2.70;;;;;;;13.64;38.65;101174.72;5027877;28;20045;-78
2022/01/11 10:12:16;;;;;;;6.47;3.03;;;;;;;14.06;38.23;101165.94;5031574;28;20117;-77
2022/01/11 10:14:51;;;;;;;6.72;3.03;;;;;;;14.44;38.95;101164.31;5047416;28;20037;-77
2022/01/11 10:17:21;;;;;;;5.78;3.13;;;;;;;14.68;39.12;101167.72;5035904;28;20030;-79
2022/01/11 10:20:10;;;;;;;5.50;2.75;;;;;;;15.05;36.67;101171.38;5042431;28;20828;-80
2022/01/11 10:22:50;;;;;;;6.18;2.30;;;;;;;15.26;34.42;101172.19;5044442;28;20048;-78
2022/01/11 10:27:56;;;;;;;9.70;4.93;;;;;;;14.71;38.65;101172.88;5004378;28;20049;-77
2022/01/11 10:30:29;;;;;;;5.38;2.83;;;;;;;13.58;39.29;101175.81;5010797;28;20034;-79
2022/01/11 10:32:58;;;;;;;7.00;4.82;;;;;;;12.88;39.97;101181.97;5017774;28;20035;-78
2022/01/11 10:35:25;;;;;;;8.63;4.95;;;;;;;12.33;40.75;101186.53;5028604;28;20073;-78
2022/01/11 10:37:55;;;;;;;10.68;2.92;;;;;;;11.51;38.88;101190.91;5026393;28;20094;-78
2022/01/11 10:40:27;;;;;;;2.75;1.65;;;;;;;10.65;40.04;101191.59;5041078;28;20052;-78
2022/01/11 10:42:58;;;;;;;4.88;1.88;;;;;;;10.17;41.26;101185.81;5025704;28;20037;-78
2022/01/11 10:45:25;;;;;;;3.63;1.88;;;;;;;9.78;41.46;101188.50;5028879;28;20049;-79
2022/01/11 10:47:53;;;;;;;4.70;2.58;;;;;;;9.41;42.73;101191.97;5012275;28;20026;-79
2022/01/11 10:50:36;;;;;;;3.80;2.05;;;;;;;8.80;44.28;101191.47;5032817;28;20170;-79
2022/01/11 10:53:05;;;;;;;2.60;1.52;;;;;;;8.49;44.18;101191.16;5049903;28;20032;-79
2022/01/11 10:55:33;;;;;;;4.97;2.03;;;;;;;8.18;44.52;101194.31;5036500;28;20462;-79
2022/01/11 10:58:11;;;;;;;4.70;1.77;;;;;;;8.01;45.17;101193.72;5044013;28;20125;-79
2022/01/11 11:00:38;;;;;;;11.35;6.25;;;;;;;7.76;46.42;101195.84;5032918;28;20045;-77
2022/01/11 11:03:09;;;;;;;5.18;3.38;;;;;;;7.59;46.58;101196.09;5029560;28;20037;-78
2022/01/11 11:05:37;;;;;;;3.83;2.08;;;;;;;7.43;47.29;101212.06;5031103;28;20075;-79
2022/01/11 11:08:08;;;;;;;2.97;2.00;;;;;;;7.33;47.33;101199.94;5032218;28;20282;-79
2022/01/11 11:10:44;;;;;;;4.18;1.90;;;;;;;7.16;48.50;101208.03;5010350;28;20042;-79
2022/01/11 11:13:16;;;;;;;6.30;1.95;;;;;;;7.03;48.37;101202.06;5029002;28;20112;-80
2022/01/11 11:15:42;;;;;;;4.22;2.53;;;;;;;7.00;49.21;101204.72;5026352;28;20042;-80
2022/01/11 11:18:24;;;;;;;4.35;2.35;;;;;;;6.96;49.64;101202.13;5030621;28;20037;-79
2022/01/11 11:20:50;;;;;;;6.55;2.33;;;;;;;6.95;50.71;101208.28;5027312;28;20056;-78
2022/01/11 11:23:17;;;;;;;5.25;1.90;;;;;;;6.89;50.41;101198.72;5031997;28;20048;-79